Time;durP1;ratioP1;P1;durP2;ratioP2;P2;SDS_P1;SDS_P2;PMS_P1;PMS_P2;Temp;Humidity;BMP_temperature;BMP_pressure;BME280_temperature;BME280_humidity;BME280_pressure;Samples;Min_cycle;Max_cycle;Signal;HPM_P1;HPM_P2
2023/08/13 00:01:12;;;;;;;;;;;;;;;30.45;32.56;98426.13;5084563;27;20265;-81
2023/08/13 00:03:38;;;;;;;;;;;;;;;30.36;32.83;98440.28;5090535;27;19924;-81
2023/08/13 00:06:04;;;;;;;;;;;;;;;30.38;32.45;98436.97;5084140;27;19925;-81
2023/08/13 00:08:30;;;;;;;;;;;;;;;30.34;32.82;98428.59;5083454;27;19972;-80
2023/08/13 00:10:56;;;;;;;;;;;;;;;30.37;32.53;98427.66;5082765;27;19920;-81
2023/08/13 00:13:22;;;;;;;;;;;;;;;30.47;32.89;98423.59;5065622;28;19920;-81
2023/08/13 00:15:48;;;;;;;;;;;;;;;30.51;32.40;98427.06;5073233;27;19988;-81
2023/08/13 00:18:14;;;;;;;;;;;;;;;30.54;32.72;98423.31;5081962;28;19920;-81
2023/08/13 00:20:40;;;;;;;;;;;;;;;30.58;32.56;98426.75;5070361;27;20308;-80
2023/08/13 00:23:06;;;;;;;;;;;;;;;30.56;32.49;98431.31;5073748;28;19924;-80
2023/08/13 00:25:32;;;;;;;;;;;;;;;30.48;32.41;98438.56;5084531;28;19922;-80
2023/08/13 00:27:58;;;;;;;;;;;;;;;30.32;33.00;98441.63;5093228;28;19919;-81
2023/08/13 00:30:24;;;;;;;;;;;;;;;30.42;32.65;98444.06;5083988;27;19928;-80
2023/08/13 00:32:50;;;;;;;;;;;;;;;30.74;32.20;98440.63;5073510;27;19924;-80
2023/08/13 00:35:16;;;;;;;;;;;;;;;30.59;31.79;98436.06;5071593;28;20333;-81
2023/08/13 00:37:42;;;;;;;;;;;;;;;30.48;31.49;98436.50;5089330;28;20007;-81
2023/08/13 00:40:08;;;;;;;;;;;;;;;30.26;31.87;98441.47;5055213;28;19986;-81
2023/08/13 00:42:34;;;;;;;;;;;;;;;29.75;33.81;98440.28;5073603;27;19924;-81
2023/08/13 00:45:01;;;;;;;;;;;;;;;29.90;32.96;98436.47;5086676;27;19920;-81
2023/08/13 00:47:27;;;;;;;;;;;;;;;30.11;32.23;98439.69;5091352;28;19912;-81
2023/08/13 00:49:53;;;;;;;;;;;;;;;30.19;32.94;98440.97;5058880;27;19933;-81
2023/08/13 00:52:19;;;;;;;;;;;;;;;30.21;32.53;98450.56;5081882;28;20341;-80
2023/08/13 00:54:45;;;;;;;;;;;;;;;30.26;32.36;98441.47;5088673;28;20433;-81
2023/08/13 00:57:11;;;;;;;;;;;;;;;30.46;32.07;98441.84;5080589;27;20007;-81
2023/08/13 00:59:38;;;;;;;;;;;;;;;30.51;32.19;98444.06;5083585;27;19920;-81
2023/08/13 01:02:04;;;;;;;;;;;;;;;30.54;31.89;98443.16;5079192;27;20377;-81
2023/08/13 01:04:30;;;;;;;;;;;;;;;30.60;31.33;98443.28;5081602;27;20422;-81
2023/08/13 01:07:16;;;;;;;;;;;;;;;30.54;31.12;98451.66;5075468;27;19920;-81
2023/08/13 01:09:50;;;;;;;;;;;;;;;30.53;31.46;98447.22;5073582;27;19943;-81
2023/08/13 01:12:16;;;;;;;;;;;;;;;30.44;31.99;98446.41;5075782;27;19924;-81
2023/08/13 01:14:55;;;;;;;;;;;;;;;30.49;31.67;98452.25;5080741;28;19928;-81
2023/08/13 01:17:22;;;;;;;;;;;;;;;30.54;31.52;98453.69;5077663;28;20008;-80
2023/08/13 01:19:48;;;;;;;;;;;;;;;30.49;31.61;98454.31;5071946;27;19925;-81
2023/08/13 01:22:14;;;;;;;;;;;;;;;30.44;31.41;98461.38;5080358;28;20060;-80
2023/08/13 01:24:40;;;;;;;;;;;;;;;30.41;31.74;98462.31;5077926;27;19944;-80
2023/08/13 01:27:22;;;;;;;;;;;;;;;30.42;31.21;98463.91;5077392;27;20368;-80
2023/08/13 01:29:52;;;;;;;;;;;;;;;30.40;31.71;98463.56;5078022;28;19929;-80
2023/08/13 01:32:21;;;;;;;;;;;;;;;30.35;31.65;98472.69;5077298;27;19931;-80
2023/08/13 01:34:47;;;;;;;;;;;;;;;30.30;31.50;98476.09;5082736;27;19955;-80
2023/08/13 01:37:14;;;;;;;;;;;;;;;30.29;31.33;98468.88;5077898;28;19924;-80
2023/08/13 01:39:40;;;;;;;;;;;;;;;30.40;31.46;98472.06;5089612;28;19916;-81
2023/08/13 01:42:09;;;;;;;;;;;;;;;30.58;30.31;98455.09;5086399;27;19976;-80
2023/08/13 01:44:35;;;;;;;;;;;;;;;29.97;31.34;98472.19;5077394;27;19920;-80
2023/08/13 01:47:02;;;;;;;;;;;;;;;30.13;31.84;98459.84;5085724;27;19921;-80
2023/08/13 01:49:28;;;;;;;;;;;;;;;29.73;32.57;98460.59;5079629;27;19928;-80
2023/08/13 01:51:54;;;;;;;;;;;;;;;30.08;31.87;98466.91;5077363;27;19926;-80
2023/08/13 01:54:20;;;;;;;;;;;;;;;29.71;32.32;98465.13;5067036;27;20295;-80
2023/08/13 01:56:46;;;;;;;;;;;;;;;29.76;32.63;98468.16;5057497;27;20381;-80
2023/08/13 01:59:12;;;;;;;;;;;;;;;30.00;32.25;98469.22;5079564;27;19939;-80
2023/08/13 02:01:38;;;;;;;;;;;;;;;30.13;32.11;98465.50;5080260;28;19931;-80
2023/08/13 02:04:04;;;;;;;;;;;;;;;30.20;32.39;98468.06;5060327;27;19921;-80
2023/08/13 02:06:33;;;;;;;;;;;;;;;30.16;32.04;98464.56;5079799;27;20048;-80
2023/08/13 02:08:59;;;;;;;;;;;;;;;30.30;31.86;98470.44;5083755;27;19925;-80
2023/08/13 02:11:25;;;;;;;;;;;;;;;30.19;32.09;98466.47;5086652;27;19971;-81
2023/08/13 02:13:51;;;;;;;;;;;;;;;30.21;31.89;98473.25;5088530;28;20392;-81
2023/08/13 02:16:17;;;;;;;;;;;;;;;30.16;32.15;98473.84;5081674;28;20056;-80
2023/08/13 02:18:43;;;;;;;;;;;;;;;30.34;31.45;98476.00;5054604;27;19920;-81
2023/08/13 02:21:09;;;;;;;;;;;;;;;30.14;31.90;98475.56;5077725;28;20407;-81
2023/08/13 02:23:35;;;;;;;;;;;;;;;29.99;33.08;98472.53;5080105;28;20437;-80
2023/08/13 02:26:01;;;;;;;;;;;;;;;30.10;32.90;98470.06;5060648;27;19920;-80
2023/08/13 02:28:27;;;;;;;;;;;;;;;30.26;32.95;98475.47;5076190;27;19969;-80
2023/08/13 02:30:53;;;;;;;;;;;;;;;30.28;33.29;98477.81;5075268;27;19931;-81
2023/08/13 02:33:19;;;;;;;;;;;;;;;30.26;32.71;98477.50;5057568;28;19925;-80
2023/08/13 02:35:45;;;;;;;;;;;;;;;30.37;32.84;98475.84;5075693;27;19920;-80
2023/08/13 02:38:11;;;;;;;;;;;;;;;30.62;32.42;98477.66;5076549;28;19924;-80
2023/08/13 02:40:37;;;;;;;;;;;;;;;30.69;31.86;98472.44;5087876;28;19943;-80
2023/08/13 02:43:03;;;;;;;;;;;;;;;30.78;32.10;98472.44;5084137;28;20317;-80
2023/08/13 02:45:30;;;;;;;;;;;;;;;30.61;32.56;98482.53;5080440;28;19924;-80
2023/08/13 02:47:57;;;;;;;;;;;;;;;30.76;31.93;98474.97;5079218;28;20261;-80
2023/08/13 02:50:23;;;;;;;;;;;;;;;30.56;32.13;98477.47;5070133;27;19920;-80
2023/08/13 02:52:49;;;;;;;;;;;;;;;30.53;32.18;98472.72;5077544;27;19963;-80
2023/08/13 02:55:15;;;;;;;;;;;;;;;30.66;32.37;98462.06;5084401;27;19983;-80
2023/08/13 02:57:41;;;;;;;;;;;;;;;30.66;32.47;98459.22;5078110;27;20392;-80
2023/08/13 03:00:08;;;;;;;;;;;;;;;30.51;32.59;98461.06;5082716;27;19925;-80
2023/08/13 03:02:34;;;;;;;;;;;;;;;30.25;33.18;98459.72;5085431;27;19928;-80
2023/08/13 03:05:01;;;;;;;;;;;;;;;30.47;32.67;98460.44;5074981;27;19925;-80
2023/08/13 03:07:27;;;;;;;;;;;;;;;30.41;32.90;98467.97;5073939;27;19970;-80
2023/08/13 03:09:53;;;;;;;;;;;;;;;30.65;32.25;98471.81;5075475;27;19928;-80
2023/08/13 03:12:19;;;;;;;;;;;;;;;30.69;32.37;98472.44;5084325;27;19967;-81
2023/08/13 03:14:46;;;;;;;;;;;;;;;30.72;32.43;98474.34;5074174;27;19923;-81
2023/08/13 03:17:12;;;;;;;;;;;;;;;30.77;32.21;98468.06;5079542;27;19927;-80
2023/08/13 03:19:38;;;;;;;;;;;;;;;31.00;31.69;98471.56;5073368;27;19924;-81
2023/08/13 03:22:04;;;;;;;;;;;;;;;30.77;32.06;98465.22;5075850;27;20289;-81
2023/08/13 03:24:30;;;;;;;;;;;;;;;30.50;32.75;98470.81;5078031;27;20394;-80
2023/08/13 03:26:56;;;;;;;;;;;;;;;30.50;32.63;98475.72;5074008;27;19978;-80
2023/08/13 03:29:22;;;;;;;;;;;;;;;30.63;32.32;98484.88;5079655;27;20015;-80
2023/08/13 03:31:48;;;;;;;;;;;;;;;30.76;31.80;98482.69;5085159;27;20012;-80
2023/08/13 03:34:14;;;;;;;;;;;;;;;30.90;31.79;98484.94;5075700;27;20359;-80
2023/08/13 03:36:40;;;;;;;;;;;;;;;30.95;32.24;98486.38;5080379;27;19921;-80
2023/08/13 03:39:06;;;;;;;;;;;;;;;31.01;31.28;98481.66;5075199;27;19920;-80
2023/08/13 03:41:32;;;;;;;;;;;;;;;31.09;30.95;98486.53;5081205;27;20020;-81
2023/08/13 03:43:58;;;;;;;;;;;;;;;30.85;31.80;98488.41;5081612;27;20379;-80
2023/08/13 03:46:24;;;;;;;;;;;;;;;30.61;31.98;98487.41;5076153;27;20040;-80
2023/08/13 03:48:50;;;;;;;;;;;;;;;30.50;32.00;98487.81;5072732;27;19921;-80
2023/08/13 03:51:16;;;;;;;;;;;;;;;30.43;32.22;98488.16;5073100;27;19948;-80
2023/08/13 03:53:42;;;;;;;;;;;;;;;30.46;32.10;98490.03;5078861;27;19960;-81
2023/08/13 03:56:08;;;;;;;;;;;;;;;30.34;32.46;98493.75;5080185;27;19955;-80
2023/08/13 03:58:38;;;;;;;;;;;;;;;30.23;32.86;98489.75;5069522;27;20011;-80
2023/08/13 04:01:07;;;;;;;;;;;;;;;30.18;33.14;98494.00;5081243;27;19921;-80
2023/08/13 04:03:34;;;;;;;;;;;;;;;30.10;32.92;98492.72;5077730;27;19964;-80
2023/08/13 04:06:00;;;;;;;;;;;;;;;30.51;32.35;98497.13;5082215;27;19943;-80
2023/08/13 04:08:26;;;;;;;;;;;;;;;30.74;32.07;98491.66;5073422;27;19927;-80
2023/08/13 04:10:52;;;;;;;;;;;;;;;31.26;31.83;98479.28;5086991;27;19943;-81
2023/08/13 04:13:19;;;;;;;;;;;;;;;31.45;30.61;98482.94;5082472;27;20427;-81
2023/08/13 04:15:45;;;;;;;;;;;;;;;31.50;31.78;98481.50;5076276;27;19924;-80
2023/08/13 04:18:11;;;;;;;;;;;;;;;31.62;32.69;98478.50;5080844;27;19920;-81
2023/08/13 04:20:39;;;;;;;;;;;;;;;32.23;31.62;98482.09;5084452;27;19920;-81
2023/08/13 04:23:05;;;;;;;;;;;;;;;32.40;32.16;98477.59;5080816;27;19924;-80
2023/08/13 04:25:32;;;;;;;;;;;;;;;32.64;32.34;98484.91;5082484;27;20022;-81
2023/08/13 04:27:58;;;;;;;;;;;;;;;33.01;31.04;98490.34;5084198;27;19927;-81
2023/08/13 04:30:24;;;;;;;;;;;;;;;33.21;31.41;98467.78;5077622;27;19928;-80
2023/08/13 04:32:54;;;;;;;;;;;;;;;33.29;30.85;98475.44;5077690;27;19921;-80
2023/08/13 04:35:20;;;;;;;;;;;;;;;33.39;31.62;98476.13;5083927;27;19955;-81
2023/08/13 04:37:46;;;;;;;;;;;;;;;33.54;31.58;98484.72;5076570;27;19927;-81
2023/08/13 04:40:12;;;;;;;;;;;;;;;33.83;31.97;98476.97;5057594;27;20389;-81
2023/08/13 04:42:41;;;;;;;;;;;;;;;34.08;30.28;98484.16;5065820;27;20341;-81
2023/08/13 04:45:07;;;;;;;;;;;;;;;34.16;29.97;98476.00;5082166;27;20385;-81
2023/08/13 04:47:33;;;;;;;;;;;;;;;34.00;30.51;98483.72;5086688;27;20407;-81
2023/08/13 04:49:59;;;;;;;;;;;;;;;34.07;30.64;98474.03;5079306;27;19928;-81
2023/08/13 04:52:25;;;;;;;;;;;;;;;34.08;31.34;98470.69;5081424;27;19916;-81
2023/08/13 04:54:51;;;;;;;;;;;;;;;34.24;30.69;98477.94;5080269;27;19980;-81
2023/08/13 04:57:17;;;;;;;;;;;;;;;34.32;31.59;98481.94;5076655;27;19951;-81
2023/08/13 04:59:43;;;;;;;;;;;;;;;34.54;30.17;98476.59;5082022;27;19960;-81
2023/08/13 05:02:09;;;;;;;;;;;;;;;34.59;29.70;98480.81;5076419;27;19920;-81
2023/08/13 05:04:35;;;;;;;;;;;;;;;34.57;30.57;98478.47;5077443;27;20404;-81
2023/08/13 05:07:02;;;;;;;;;;;;;;;34.38;30.36;98473.50;5075569;27;20417;-81
2023/08/13 05:09:28;;;;;;;;;;;;;;;34.25;31.46;98478.72;5078034;27;19924;-81
2023/08/13 05:11:54;;;;;;;;;;;;;;;34.61;31.00;98472.56;5083476;27;19928;-82
2023/08/13 05:14:21;;;;;;;;;;;;;;;34.59;30.62;98477.94;5055631;27;20020;-82
2023/08/13 05:16:47;;;;;;;;;;;;;;;34.77;29.39;98477.72;5084490;27;19920;-82
2023/08/13 05:19:13;;;;;;;;;;;;;;;34.89;30.05;98473.72;5081051;28;19968;-82
2023/08/13 05:21:39;;;;;;;;;;;;;;;34.79;30.28;98475.13;5083263;28;19945;-82
2023/08/13 05:24:06;;;;;;;;;;;;;;;34.77;30.62;98476.91;5078182;27;19935;-82
2023/08/13 05:26:32;;;;;;;;;;;;;;;34.97;30.01;98482.63;5061447;27;19933;-82
2023/08/13 05:28:58;;;;;;;;;;;;;;;35.02;30.77;98484.78;5083940;27;19924;-82
2023/08/13 05:31:24;;;;;;;;;;;;;;;35.10;30.78;98483.09;5082928;27;20330;-82
2023/08/13 05:33:50;;;;;;;;;;;;;;;35.07;30.69;98479.16;5081471;28;20489;-82
2023/08/13 05:36:16;;;;;;;;;;;;;;;35.06;29.71;98491.06;5077873;27;20385;-82
2023/08/13 05:38:42;;;;;;;;;;;;;;;35.15;30.42;98483.16;5081601;27;19927;-82
2023/08/13 05:41:08;;;;;;;;;;;;;;;35.37;30.51;98479.75;5081301;27;19971;-82
2023/08/13 05:43:34;;;;;;;;;;;;;;;35.46;31.38;98493.88;5077280;27;19927;-82
2023/08/13 05:46:00;;;;;;;;;;;;;;;35.57;30.27;98494.03;5079538;27;19920;-82
2023/08/13 05:48:26;;;;;;;;;;;;;;;35.69;29.33;98492.84;5077904;27;19928;-82
2023/08/13 05:50:52;;;;;;;;;;;;;;;35.53;29.68;98484.09;5081873;27;19920;-81
2023/08/13 05:53:18;;;;;;;;;;;;;;;35.58;29.85;98481.31;5085645;27;19920;-80
2023/08/13 05:55:44;;;;;;;;;;;;;;;35.65;28.97;98483.72;5084311;28;19920;-80
2023/08/13 05:58:10;;;;;;;;;;;;;;;35.68;28.36;98481.94;5075792;27;19951;-80
2023/08/13 06:00:37;;;;;;;;;;;;;;;35.64;28.22;98487.88;5080864;27;20417;-80
2023/08/13 06:03:03;;;;;;;;;;;;;;;35.55;29.14;98492.97;5081517;27;19921;-80
2023/08/13 06:05:29;;;;;;;;;;;;;;;35.71;28.45;98486.66;5086999;27;19943;-81
2023/08/13 06:07:55;;;;;;;;;;;;;;;35.72;29.48;98488.22;5082313;27;20416;-80
2023/08/13 06:10:21;;;;;;;;;;;;;;;35.55;30.72;98485.19;5082161;27;20368;-81
2023/08/13 06:12:47;;;;;;;;;;;;;;;35.69;29.95;98487.13;5091771;27;19924;-81
2023/08/13 06:15:13;;;;;;;;;;;;;;;35.55;30.12;98488.03;5081543;27;19973;-81
2023/08/13 06:17:42;;;;;;;;;;;;;;;35.78;30.33;98481.25;5083518;28;19928;-81
2023/08/13 06:20:10;;;;;;;;;;;;;;;35.79;29.08;98488.53;5082789;27;19916;-81
2023/08/13 06:22:36;;;;;;;;;;;;;;;35.62;28.82;98495.38;5081891;27;20373;-81
2023/08/13 06:25:02;;;;;;;;;;;;;;;36.08;29.76;98494.03;5084265;27;19923;-81
2023/08/13 06:27:28;;;;;;;;;;;;;;;36.56;28.06;98499.09;5085163;27;19928;-81
2023/08/13 06:29:54;;;;;;;;;;;;;;;36.61;28.09;98492.63;5076435;28;20346;-80
2023/08/13 06:32:20;;;;;;;;;;;;;;;36.59;28.38;98495.22;5083936;27;19969;-81
2023/08/13 06:34:46;;;;;;;;;;;;;;;36.81;27.73;98497.44;5081107;28;19931;-81
2023/08/13 06:37:12;;;;;;;;;;;;;;;36.64;27.74;98500.19;5085417;27;19922;-81
2023/08/13 06:39:38;;;;;;;;;;;;;;;36.84;27.00;98488.59;5085469;28;19924;-81
2023/08/13 06:42:05;;;;;;;;;;;;;;;37.25;26.56;98489.84;5086029;27;19968;-81
2023/08/13 06:44:31;;;;;;;;;;;;;;;37.57;27.06;98498.28;5080637;27;19955;-81
2023/08/13 06:46:57;;;;;;;;;;;;;;;37.80;27.07;98497.81;5084590;28;19962;-81
2023/08/13 06:49:23;;;;;;;;;;;;;;;37.98;25.33;98497.34;5084327;28;20420;-81
2023/08/13 06:51:49;;;;;;;;;;;;;;;37.81;25.88;98498.63;5079863;28;20288;-81
2023/08/13 06:54:15;;;;;;;;;;;;;;;37.78;26.40;98505.38;5082048;28;19929;-81
2023/08/13 06:56:42;;;;;;;;;;;;;;;37.76;24.65;98503.00;5073147;28;19946;-81
2023/08/13 06:59:08;;;;;;;;;;;;;;;37.66;25.96;98500.91;5083562;28;19927;-82
2023/08/13 07:01:35;;;;;;;;;;;;;;;37.82;26.24;98500.97;5089800;27;19952;-82
2023/08/13 07:04:01;;;;;;;;;;;;;;;38.08;25.53;98497.88;5087554;27;19923;-81
2023/08/13 07:06:27;;;;;;;;;;;;;;;38.69;24.86;98503.59;5081007;28;20022;-81
2023/08/13 07:08:53;;;;;;;;;;;;;;;38.78;24.60;98502.53;5073488;28;19926;-81
2023/08/13 07:11:20;;;;;;;;;;;;;;;38.75;24.47;98512.97;5068894;27;19973;-82
2023/08/13 07:13:48;;;;;;;;;;;;;;;39.07;24.53;98508.44;5074946;28;19928;-82
2023/08/13 07:16:15;;;;;;;;;;;;;;;39.35;23.95;98506.25;5082752;27;19927;-83
2023/08/13 07:18:42;;;;;;;;;;;;;;;38.69;24.18;98503.59;5087463;28;19916;-82
2023/08/13 07:21:08;;;;;;;;;;;;;;;39.12;24.08;98507.63;5083670;27;19928;-81
2023/08/13 07:23:35;;;;;;;;;;;;;;;39.20;23.84;98505.81;5079242;28;20334;-82
2023/08/13 07:26:01;;;;;;;;;;;;;;;39.48;23.83;98499.94;5079074;28;19959;-82
2023/08/13 07:28:27;;;;;;;;;;;;;;;39.39;22.87;98503.13;5058910;28;20431;-82
2023/08/13 07:30:53;;;;;;;;;;;;;;;39.44;23.83;98502.31;5079324;27;20011;-82
2023/08/13 07:33:19;;;;;;;;;;;;;;;39.67;23.06;98498.03;5083138;28;19930;-84
2023/08/13 07:35:45;;;;;;;;;;;;;;;39.60;22.99;98503.56;5077506;27;20638;-83
2023/08/13 07:38:11;;;;;;;;;;;;;;;39.20;22.23;98497.19;5078201;27;19920;-83
2023/08/13 07:40:37;;;;;;;;;;;;;;;39.34;22.22;98498.19;5080244;28;20400;-83
2023/08/13 07:43:03;;;;;;;;;;;;;;;39.26;21.87;98497.94;5062100;27;20015;-84
2023/08/13 07:45:29;;;;;;;;;;;;;;;39.38;23.61;98510.97;5073340;27;19921;-83
2023/08/13 07:47:56;;;;;;;;;;;;;;;39.53;23.39;98506.97;5072616;27;19928;-83
2023/08/13 07:50:22;;;;;;;;;;;;;;;39.79;21.36;98499.53;5074054;27;20014;-82
2023/08/13 07:52:50;;;;;;;;;;;;;;;39.69;22.03;98508.97;5078226;27;19924;-82
2023/08/13 07:55:16;;;;;;;;;;;;;;;39.84;21.58;98500.78;5079460;27;19993;-81
2023/08/13 07:57:42;;;;;;;;;;;;;;;39.77;23.28;98505.00;5064651;28;20020;-81
2023/08/13 08:00:10;;;;;;;;;;;;;;;39.80;21.96;98506.03;5082671;28;20019;-82
2023/08/13 08:02:36;;;;;;;;;;;;;;;39.95;21.53;98498.63;5078393;27;19925;-81
2023/08/13 08:05:05;;;;;;;;;;;;;;;39.97;22.07;98509.56;5078349;28;19972;-82
2023/08/13 08:07:31;;;;;;;;;;;;;;;39.53;22.77;98502.00;5074681;27;19968;-83
2023/08/13 08:09:58;;;;;;;;;;;;;;;39.31;22.11;98504.97;5086975;27;19972;-83
2023/08/13 08:12:24;;;;;;;;;;;;;;;39.48;22.06;98499.94;5075360;27;19932;-82
2023/08/13 08:14:50;;;;;;;;;;;;;;;39.66;21.28;98504.28;5083070;27;19931;-82
2023/08/13 08:17:16;;;;;;;;;;;;;;;39.90;22.65;98502.31;5074034;27;19929;-82
2023/08/13 08:19:42;;;;;;;;;;;;;;;39.69;22.00;98501.16;5083180;27;19922;-83
2023/08/13 08:22:08;;;;;;;;;;;;;;;39.81;21.93;98508.38;5080411;27;20007;-84
2023/08/13 08:24:34;;;;;;;;;;;;;;;39.57;21.22;98499.63;5076768;27;19981;-84
2023/08/13 08:27:00;;;;;;;;;;;;;;;39.83;21.38;98504.97;5081299;27;20377;-83
2023/08/13 08:29:26;;;;;;;;;;;;;;;40.19;22.54;98505.78;5059654;27;20526;-83
2023/08/13 08:31:52;;;;;;;;;;;;;;;40.32;20.96;98508.78;5080912;27;19966;-83
2023/08/13 08:34:18;;;;;;;;;;;;;;;40.49;21.03;98507.38;5077867;27;20326;-83
2023/08/13 08:36:44;;;;;;;;;;;;;;;40.49;21.64;98504.50;5080138;27;19920;-83
2023/08/13 08:39:10;;;;;;;;;;;;;;;40.85;20.97;98504.34;5075682;27;20279;-83
2023/08/13 08:41:40;;;;;;;;;;;;;;;40.79;21.80;98504.44;5079140;27;19932;-86
2023/08/13 08:44:07;;;;;;;;;;;;;;;40.66;20.64;98496.44;5074742;27;20582;-83
2023/08/13 08:46:33;;;;;;;;;;;;;;;40.81;20.75;98496.03;5077793;28;19966;-85
2023/08/13 08:49:00;;;;;;;;;;;;;;;40.78;20.80;98488.47;5077239;27;19924;-83
2023/08/13 08:51:26;;;;;;;;;;;;;;;40.59;19.36;98476.88;5076495;27;19916;-83
2023/08/13 08:53:52;;;;;;;;;;;;;;;40.60;20.98;98483.44;5063492;28;19995;-83
2023/08/13 08:56:19;;;;;;;;;;;;;;;40.40;19.21;98478.13;5073531;28;19998;-83
2023/08/13 08:58:45;;;;;;;;;;;;;;;40.17;19.99;98486.16;5081715;27;19921;-83
2023/08/13 09:01:11;;;;;;;;;;;;;;;40.51;19.15;98478.81;5080030;27;19920;-85
2023/08/13 09:03:37;;;;;;;;;;;;;;;40.85;20.30;98482.13;5087310;28;19921;-85
2023/08/13 09:06:03;;;;;;;;;;;;;;;40.63;19.92;98485.25;5083768;28;19917;-84
2023/08/13 09:08:30;;;;;;;;;;;;;;;40.56;21.07;98486.59;5077954;27;20014;-84
2023/08/13 09:10:56;;;;;;;;;;;;;;;40.40;20.71;98481.00;5086389;27;19916;-83
2023/08/13 09:13:22;;;;;;;;;;;;;;;40.84;21.98;98477.66;5075024;27;19972;-84
2023/08/13 09:15:49;;;;;;;;;;;;;;;40.66;21.46;98473.41;5082676;28;20003;-83
2023/08/13 09:18:15;;;;;;;;;;;;;;;40.44;22.02;98476.53;5074622;27;19920;-84
2023/08/13 09:20:44;;;;;;;;;;;;;;;40.16;21.64;98472.31;5059733;28;20597;-87
2023/08/13 09:23:10;;;;;;;;;;;;;;;40.38;21.74;98472.88;5078095;27;19920;-83
2023/08/13 09:25:37;;;;;;;;;;;;;;;40.58;20.48;98474.56;5081856;27;19920;-83
2023/08/13 09:28:03;;;;;;;;;;;;;;;40.82;20.03;98470.88;5077794;27;20015;-84
2023/08/13 09:30:31;;;;;;;;;;;;;;;41.38;21.42;98479.66;5082387;28;19925;-83
2023/08/13 09:33:00;;;;;;;;;;;;;;;41.34;20.01;98475.00;5080982;27;19920;-83
2023/08/13 09:35:26;;;;;;;;;;;;;;;41.12;20.14;98469.50;5077391;27;19972;-84
2023/08/13 09:37:53;;;;;;;;;;;;;;;40.41;20.89;98471.03;5076815;28;20598;-84
2023/08/13 09:40:19;;;;;;;;;;;;;;;40.22;22.47;98473.81;5072498;27;19928;-84
2023/08/13 09:42:46;;;;;;;;;;;;;;;40.29;20.31;98467.47;5077272;27;20329;-83
2023/08/13 09:45:12;;;;;;;;;;;;;;;40.67;19.58;98469.22;5081731;27;19924;-84
2023/08/13 09:47:40;;;;;;;;;;;;;;;40.41;21.13;98474.69;5070423;27;20373;-83
2023/08/13 09:50:06;;;;;;;;;;;;;;;40.18;20.13;98472.56;5070505;27;19980;-83
2023/08/13 09:52:33;;;;;;;;;;;;;;;39.83;21.33;98470.47;5078460;27;20416;-83
2023/08/13 09:55:11;;;;;;;;;;;;;;;39.64;21.33;98469.53;5072816;27;19932;-83
2023/08/13 09:57:38;;;;;;;;;;;;;;;39.79;20.66;98470.75;5077474;28;20476;-82
2023/08/13 10:00:06;;;;;;;;;;;;;;;39.52;20.46;98468.81;5075870;27;19927;-82
2023/08/13 10:02:32;;;;;;;;;;;;;;;40.12;21.88;98463.97;5079373;27;19924;-83
2023/08/13 10:04:58;;;;;;;;;;;;;;;39.83;20.06;98467.59;5075290;27;19963;-81
2023/08/13 10:07:25;;;;;;;;;;;;;;;40.05;20.28;98460.91;5075367;27;19920;-83
2023/08/13 10:09:52;;;;;;;;;;;;;;;40.08;21.83;98463.47;5071540;27;19936;-83
2023/08/13 10:12:18;;;;;;;;;;;;;;;40.49;21.53;98469.94;5072388;27;20293;-83
2023/08/13 10:14:44;;;;;;;;;;;;;;;40.24;21.41;98462.53;5073003;28;20327;-86
2023/08/13 10:17:16;;;;;;;;;;;;;;;40.08;21.98;98460.59;5050859;27;19933;-82
2023/08/13 10:19:45;;;;;;;;;;;;;;;40.51;22.15;98461.53;5070129;28;19931;-82
2023/08/13 10:22:11;;;;;;;;;;;;;;;40.58;20.33;98469.59;5071590;28;19920;-82
2023/08/13 10:24:37;;;;;;;;;;;;;;;40.93;21.48;98470.78;5073798;28;19920;-83
2023/08/13 10:27:03;;;;;;;;;;;;;;;40.63;20.10;98467.97;5072226;27;19933;-83
2023/08/13 10:29:36;;;;;;;;;;;;;;;40.44;20.85;98465.00;5072765;28;19980;-83
2023/08/13 10:32:12;;;;;;;;;;;;;;;40.60;20.83;98471.91;5077397;27;19993;-83
2023/08/13 10:34:40;;;;;;;;;;;;;;;40.80;20.03;98470.66;5073869;27;19972;-83
2023/08/13 10:37:16;;;;;;;;;;;;;;;41.01;20.06;98468.88;5080564;28;19939;-82
2023/08/13 10:39:43;;;;;;;;;;;;;;;41.42;19.45;98462.84;5069554;27;19947;-82
2023/08/13 10:42:27;;;;;;;;;;;;;;;41.21;18.46;98474.09;5073097;27;25819;-83
2023/08/13 10:44:54;;;;;;;;;;;;;;;40.67;19.29;98465.56;5073884;27;19944;-82
2023/08/13 10:47:23;;;;;;;;;;;;;;;40.48;20.17;98456.84;5074897;28;19932;-83
2023/08/13 10:49:49;;;;;;;;;;;;;;;40.84;19.50;98465.38;5071979;28;19943;-83
2023/08/13 10:52:15;;;;;;;;;;;;;;;41.33;20.22;98464.00;5080185;28;20479;-83
2023/08/13 10:54:42;;;;;;;;;;;;;;;41.78;18.33;98461.25;5084289;28;19928;-83
2023/08/13 10:57:08;;;;;;;;;;;;;;;41.38;20.06;98457.41;5080653;28;19920;-83
2023/08/13 10:59:39;;;;;;;;;;;;;;;41.08;19.58;98451.72;5072546;28;19922;-83
2023/08/13 11:02:08;;;;;;;;;;;;;;;40.82;20.31;98450.72;5081841;28;19939;-83
2023/08/13 11:04:35;;;;;;;;;;;;;;;41.43;18.91;98450.75;5072686;28;19993;-83
2023/08/13 11:07:01;;;;;;;;;;;;;;;41.64;17.83;98450.97;5072621;27;19921;-83
2023/08/13 11:09:29;;;;;;;;;;;;;;;41.97;18.27;98453.34;5073551;28;20010;-83
2023/08/13 11:11:55;;;;;;;;;;;;;;;41.79;19.22;98452.06;5079381;28;19966;-83
2023/08/13 11:14:21;;;;;;;;;;;;;;;41.87;18.81;98452.22;5073694;28;19924;-82
2023/08/13 11:16:47;;;;;;;;;;;;;;;42.06;19.37;98449.28;5079313;28;19921;-83
2023/08/13 11:19:13;;;;;;;;;;;;;;;41.83;18.65;98448.84;5082286;28;19931;-83
2023/08/13 11:21:39;;;;;;;;;;;;;;;41.68;16.63;98451.47;5086339;28;20396;-83
2023/08/13 11:24:08;;;;;;;;;;;;;;;41.39;18.51;98444.53;5084150;27;19935;-83
2023/08/13 11:26:35;;;;;;;;;;;;;;;41.06;18.90;98439.97;5073941;28;19954;-84
2023/08/13 11:29:01;;;;;;;;;;;;;;;41.30;19.58;98442.03;5071680;28;19920;-84
2023/08/13 11:31:27;;;;;;;;;;;;;;;41.32;18.87;98443.03;5074493;27;19973;-84
2023/08/13 11:33:53;;;;;;;;;;;;;;;40.92;19.75;98431.75;5077276;27;20407;-83
2023/08/13 11:36:19;;;;;;;;;;;;;;;41.32;18.81;98448.81;5073925;27;19929;-84
2023/08/13 11:38:45;;;;;;;;;;;;;;;41.53;18.80;98439.59;5083126;28;19963;-84
2023/08/13 11:41:11;;;;;;;;;;;;;;;41.07;19.34;98447.28;5075558;27;20437;-83
2023/08/13 11:43:37;;;;;;;;;;;;;;;40.51;20.04;98440.59;5077296;27;19929;-83
2023/08/13 11:46:04;;;;;;;;;;;;;;;41.24;20.78;98444.19;5080672;27;19916;-83
2023/08/13 11:48:31;;;;;;;;;;;;;;;41.55;20.43;98443.50;5075935;27;19921;-83
2023/08/13 11:51:10;;;;;;;;;;;;;;;40.63;18.99;98437.03;5073623;27;19924;-83
2023/08/13 11:53:41;;;;;;;;;;;;;;;40.93;19.37;98442.75;5080393;27;19988;-83
2023/08/13 11:56:07;;;;;;;;;;;;;;;41.24;18.79;98444.19;5072351;27;19916;-83
2023/08/13 11:58:33;;;;;;;;;;;;;;;41.50;19.42;98437.81;5075593;27;20387;-83
2023/08/13 12:00:59;;;;;;;;;;;;;;;41.31;19.59;98434.94;5076569;27;19920;-83
2023/08/13 12:03:33;;;;;;;;;;;;;;;40.73;19.66;98434.56;5077707;27;19917;-83
2023/08/13 12:05:59;;;;;;;;;;;;;;;41.00;20.57;98432.72;5052456;27;19932;-82
2023/08/13 12:08:27;;;;;;;;;;;;;;;41.49;20.40;98425.50;5079171;27;20011;-85
2023/08/13 12:10:53;;;;;;;;;;;;;;;42.15;18.58;98428.69;5075961;27;20334;-84
2023/08/13 12:13:19;;;;;;;;;;;;;;;42.47;19.24;98427.28;5076743;27;19924;-84
2023/08/13 12:15:45;;;;;;;;;;;;;;;42.38;18.52;98421.16;5070103;27;19965;-84
2023/08/13 12:18:11;;;;;;;;;;;;;;;42.56;18.18;98424.00;5076935;28;19920;-84
2023/08/13 12:20:37;;;;;;;;;;;;;;;42.73;19.60;98428.66;5075373;28;19916;-84
2023/08/13 12:23:03;;;;;;;;;;;;;;;42.35;18.10;98423.06;5078156;27;19960;-85
2023/08/13 12:25:29;;;;;;;;;;;;;;;42.30;17.80;98431.81;5082025;27;20408;-84
2023/08/13 12:27:55;;;;;;;;;;;;;;;42.34;20.15;98430.16;5078353;28;19923;-84
2023/08/13 12:30:21;;;;;;;;;;;;;;;42.40;17.38;98419.28;5074804;27;20378;-84
2023/08/13 12:32:47;;;;;;;;;;;;;;;42.39;19.06;98423.50;5078937;28;20342;-84
2023/08/13 12:35:13;;;;;;;;;;;;;;;42.33;18.64;98416.28;5087455;28;19924;-84
2023/08/13 12:37:39;;;;;;;;;;;;;;;42.09;19.19;98428.78;5077934;27;19924;-85
2023/08/13 12:40:08;;;;;;;;;;;;;;;42.39;19.22;98411.94;5070631;27;20373;-85
2023/08/13 12:42:35;;;;;;;;;;;;;;;42.10;18.17;98420.91;5080039;27;19931;-84
2023/08/13 12:45:01;;;;;;;;;;;;;;;41.32;19.27;98419.97;5075289;27;19920;-82